Austin, TX (78725)

9:57 AM CDT on September 05, 2015 (GMT -0500)
Chaparral Crossing | | Change Station
CLOSE
Current Station
Personal Weather Station
Location: Austin, TX
Elevation: 440 ft
Nearby Weather Stations

Elev 440 ft 30.24 °N, 97.57 °W | Updated 3 seconds ago

Mostly Cloudy
Mostly Cloudy
84.2 °F
Feels Like 92 °F
N
0.0
Wind Variable Wind from SW
Gusts 0.0 mph

Today
High -- | Low -- °F
--% Chance of Precip.
Yesterday
High -- | Low -- °F
Precip. -- in
7:09 AM 7:48 PM
Waning Gibbous, 48% visible
Pressure 29.99 in
Visibility 9.0 miles
Clouds Mostly Cloudy 1500 ft
Mostly Cloudy 2800 ft
Mostly Cloudy 6000 ft
Mostly Cloudy 20000 ft
Heat Index 92 °F
Dew Point 75 °F
Humidity 74%
Rainfall 0.00 in
Snow Depth Not available.
UV 2.0 out of 12
Pollen 8.10 out of 12
Air Quality Not available.
Flu Activity Not available.
METAR KAUS 051453Z 16009KT 9SM BKN015 BKN028 BKN060 BKN200 28/24 A3002 RMK AO2 SLP153 CB DSNT SW-W MOV N T02830239 51007
Pressure 29.99 in
Visibility 9.0 miles
Clouds Mostly Cloudy 1500 ft
Mostly Cloudy 2800 ft
Mostly Cloudy 6000 ft
Mostly Cloudy 20000 ft
Heat Index 92 °F
Dew Point 75 °F
Humidity 74%
Rainfall 0.00 in
Snow Depth Not available.
UV 2.0 out of 12
Pollen 8.10 out of 12
Air Quality Not available.
Flu Activity Not available.
METAR KAUS 051453Z 16009KT 9SM BKN015 BKN028 BKN060 BKN200 28/24 A3002 RMK AO2 SLP153 CB DSNT SW-W MOV N T02830239 51007
Nowcast | as of 9:09 am CDT on September 5, 2015

Through 10 am...isolated showers and patchy sprinkles east of I-35 will move to the north at 10 to 15 mph. Spotty rainfall amounts up to 1/4 inch are possible.

×

10-Day Weather Forecast

×

Almanac

Astronomy

Sep. 05, 2015 Rise Set
Actual Time
Civil Twilight
Nautical Twilight
Astronomical Twilight
Moon
Length of Visible Light
Length of Day
Tomorrow will be .
, % of the Moon is Illuminated

Today's Extremes

State Highs State Lows

Community

WunderPhotos

Upload Photos

1,852,481 photos uploaded!

WunderBlogs® & News

Nearby

Air Quality

  Air Quality AQ Index Pollutant
Not available.

Snow Depth

Station Depth Elevation

Earthquake Activity

City Distance Mag. Time & Date
Minimum magnitude displayed is 2.5.

Coastal Water Temperatures

Place Temperature

Stations

Nearby Weather Stations

Station Location Temp. Windchill Dew Point Humidity Wind Precip. Elev Updated Type